sensor_id;sensor_type;location;lat;lon;timestamp;P1;durP1;ratioP1;P2;durP2;ratioP2
49946;SDS011;35839;48.662;13.300;2023-05-10T05:07:15;12.32;;;6.97;;
49946;SDS011;35839;48.662;13.300;2023-05-10T05:09:40;11.38;;;6.15;;
49946;SDS011;35839;48.662;13.300;2023-05-10T05:12:05;7.40;;;5.78;;
49946;SDS011;35839;48.662;13.300;2023-05-10T05:14:31;7.93;;;6.82;;
49946;SDS011;35839;48.662;13.300;2023-05-10T05:16:56;9.60;;;5.97;;
49946;SDS011;35839;48.662;13.300;2023-05-10T05:19:22;8.57;;;7.10;;
49946;SDS011;35839;48.662;13.300;2023-05-10T05:21:47;8.50;;;7.07;;
49946;SDS011;35839;48.662;13.300;2023-05-10T05:24:13;9.82;;;6.40;;
49946;SDS011;35839;48.662;13.300;2023-05-10T05:26:38;7.53;;;6.45;;
49946;SDS011;35839;48.662;13.300;2023-05-10T05:29:04;9.07;;;7.18;;
49946;SDS011;35839;48.662;13.300;2023-05-10T05:31:29;11.02;;;7.32;;
49946;SDS011;35839;48.662;13.300;2023-05-10T05:33:55;9.18;;;6.97;;
49946;SDS011;35839;48.662;13.300;2023-05-10T05:36:20;8.00;;;6.57;;
49946;SDS011;35839;48.662;13.300;2023-05-10T05:38:46;11.15;;;7.65;;
49946;SDS011;35839;48.662;13.300;2023-05-10T05:41:12;7.78;;;6.82;;
49946;SDS011;35839;48.662;13.300;2023-05-10T05:43:37;14.63;;;7.63;;
49946;SDS011;35839;48.662;13.300;2023-05-10T05:46:02;11.73;;;7.47;;
49946;SDS011;35839;48.662;13.300;2023-05-10T05:48:29;10.45;;;7.78;;
49946;SDS011;35839;48.662;13.300;2023-05-10T05:50:55;7.90;;;7.03;;
49946;SDS011;35839;48.662;13.300;2023-05-10T05:53:24;8.70;;;7.43;;
49946;SDS011;35839;48.662;13.300;2023-05-10T05:58:19;8.15;;;7.10;;
49946;SDS011;35839;48.662;13.300;2023-05-10T06:00:44;9.00;;;7.32;;
49946;SDS011;35839;48.662;13.300;2023-05-10T06:03:10;10.52;;;8.20;;
49946;SDS011;35839;48.662;13.300;2023-05-10T06:05:35;11.13;;;7.47;;
49946;SDS011;35839;48.662;13.300;2023-05-10T06:08:00;12.02;;;9.00;;
49946;SDS011;35839;48.662;13.300;2023-05-10T06:10:26;9.75;;;8.52;;
49946;SDS011;35839;48.662;13.300;2023-05-10T06:12:51;9.10;;;7.90;;
49946;SDS011;35839;48.662;13.300;2023-05-10T06:15:17;9.57;;;8.60;;
49946;SDS011;35839;48.662;13.300;2023-05-10T06:17:43;11.43;;;8.40;;
49946;SDS011;35839;48.662;13.300;2023-05-10T06:20:09;9.82;;;8.23;;
49946;SDS011;35839;48.662;13.300;2023-05-10T06:22:35;9.85;;;8.40;;
49946;SDS011;35839;48.662;13.300;2023-05-10T06:25:00;11.40;;;8.35;;
49946;SDS011;35839;48.662;13.300;2023-05-10T06:27:26;9.75;;;8.60;;
49946;SDS011;35839;48.662;13.300;2023-05-10T06:29:51;9.88;;;8.15;;
49946;SDS011;35839;48.662;13.300;2023-05-10T06:32:16;16.55;;;9.18;;
49946;SDS011;35839;48.662;13.300;2023-05-10T06:34:42;9.45;;;8.18;;
49946;SDS011;35839;48.662;13.300;2023-05-10T06:37:08;11.35;;;9.10;;
49946;SDS011;35839;48.662;13.300;2023-05-10T06:39:33;13.07;;;8.57;;
49946;SDS011;35839;48.662;13.300;2023-05-10T06:41:58;10.73;;;9.18;;
49946;SDS011;35839;48.662;13.300;2023-05-10T06:44:24;11.13;;;8.75;;
49946;SDS011;35839;48.662;13.300;2023-05-10T06:46:49;11.32;;;9.20;;
49946;SDS011;35839;48.662;13.300;2023-05-10T06:49:16;14.90;;;10.13;;
49946;SDS011;35839;48.662;13.300;2023-05-10T06:51:41;13.57;;;10.30;;
49946;SDS011;35839;48.662;13.300;2023-05-10T06:54:06;13.88;;;10.27;;
49946;SDS011;35839;48.662;13.300;2023-05-10T06:56:32;11.27;;;9.50;;
49946;SDS011;35839;48.662;13.300;2023-05-10T06:58:57;11.25;;;9.15;;
49946;SDS011;35839;48.662;13.300;2023-05-10T07:01:22;10.88;;;8.80;;
49946;SDS011;35839;48.662;13.300;2023-05-10T07:03:48;11.88;;;9.15;;
49946;SDS011;35839;48.662;13.300;2023-05-10T07:06:13;11.45;;;8.63;;
49946;SDS011;35839;48.662;13.300;2023-05-10T07:08:38;12.18;;;8.98;;
49946;SDS011;35839;48.662;13.300;2023-05-10T07:11:04;14.30;;;8.50;;
49946;SDS011;35839;48.662;13.300;2023-05-10T07:13:32;11.98;;;9.55;;
49946;SDS011;35839;48.662;13.300;2023-05-10T07:15:58;9.13;;;8.15;;
49946;SDS011;35839;48.662;13.300;2023-05-10T07:18:24;10.35;;;8.30;;
49946;SDS011;35839;48.662;13.300;2023-05-10T07:20:50;10.95;;;8.25;;
49946;SDS011;35839;48.662;13.300;2023-05-10T07:23:15;12.27;;;8.13;;
49946;SDS011;35839;48.662;13.300;2023-05-10T07:25:44;12.20;;;9.05;;
49946;SDS011;35839;48.662;13.300;2023-05-10T07:28:13;11.15;;;8.43;;
49946;SDS011;35839;48.662;13.300;2023-05-10T07:30:40;11.07;;;7.97;;
49946;SDS011;35839;48.662;13.300;2023-05-10T07:33:06;11.25;;;9.32;;
49946;SDS011;35839;48.662;13.300;2023-05-10T07:35:33;9.55;;;8.48;;
49946;SDS011;35839;48.662;13.300;2023-05-10T07:37:58;11.93;;;9.25;;
49946;SDS011;35839;48.662;13.300;2023-05-10T07:40:24;9.82;;;8.82;;
49946;SDS011;35839;48.662;13.300;2023-05-10T07:42:49;8.98;;;8.02;;
49946;SDS011;35839;48.662;13.300;2023-05-10T07:45:14;11.82;;;8.05;;
49946;SDS011;35839;48.662;13.300;2023-05-10T07:47:39;9.52;;;7.85;;
49946;SDS011;35839;48.662;13.300;2023-05-10T07:50:05;8.90;;;8.00;;
49946;SDS011;35839;48.662;13.300;2023-05-10T07:52:31;10.25;;;9.00;;
49946;SDS011;35839;48.662;13.300;2023-05-10T07:54:57;10.68;;;8.70;;
49946;SDS011;35839;48.662;13.300;2023-05-10T07:57:22;11.23;;;8.65;;
49946;SDS011;35839;48.662;13.300;2023-05-10T07:59:47;9.50;;;8.50;;
49946;SDS011;35839;48.662;13.300;2023-05-10T08:02:12;12.27;;;10.15;;
49946;SDS011;35839;48.662;13.300;2023-05-10T08:04:38;11.90;;;9.77;;
49946;SDS011;35839;48.662;13.300;2023-05-10T08:07:03;13.80;;;11.30;;
49946;SDS011;35839;48.662;13.300;2023-05-10T08:09:28;13.95;;;12.23;;
49946;SDS011;35839;48.662;13.300;2023-05-10T08:11:54;13.60;;;11.32;;
49946;SDS011;35839;48.662;13.300;2023-05-10T08:14:19;13.27;;;10.77;;
49946;SDS011;35839;48.662;13.300;2023-05-10T08:16:45;12.55;;;10.98;;
49946;SDS011;35839;48.662;13.300;2023-05-10T08:19:10;13.00;;;11.60;;
49946;SDS011;35839;48.662;13.300;2023-05-10T08:21:36;14.63;;;12.52;;
49946;SDS011;35839;48.662;13.300;2023-05-10T08:24:01;13.23;;;11.82;;
49946;SDS011;35839;48.662;13.300;2023-05-10T08:26:27;12.27;;;11.07;;
49946;SDS011;35839;48.662;13.300;2023-05-10T08:28:52;15.73;;;12.48;;
49946;SDS011;35839;48.662;13.300;2023-05-10T08:31:17;13.20;;;11.48;;
49946;SDS011;35839;48.662;13.300;2023-05-10T08:33:43;12.68;;;10.88;;
49946;SDS011;35839;48.662;13.300;2023-05-10T08:36:09;10.82;;;9.73;;
49946;SDS011;35839;48.662;13.300;2023-05-10T08:38:35;12.02;;;9.65;;
49946;SDS011;35839;48.662;13.300;2023-05-10T08:41:02;12.88;;;10.02;;
49946;SDS011;35839;48.662;13.300;2023-05-10T08:43:29;11.10;;;10.00;;
49946;SDS011;35839;48.662;13.300;2023-05-10T08:45:55;14.65;;;10.52;;
49946;SDS011;35839;48.662;13.300;2023-05-10T08:48:24;10.57;;;9.10;;
49946;SDS011;35839;48.662;13.300;2023-05-10T08:50:50;9.52;;;8.52;;
49946;SDS011;35839;48.662;13.300;2023-05-10T08:53:17;9.57;;;7.85;;
49946;SDS011;35839;48.662;13.300;2023-05-10T08:55:44;9.70;;;8.05;;
49946;SDS011;35839;48.662;13.300;2023-05-10T08:58:10;9.50;;;8.43;;
49946;SDS011;35839;48.662;13.300;2023-05-10T09:00:35;15.70;;;12.48;;
49946;SDS011;35839;48.662;13.300;2023-05-10T09:05:30;12.15;;;10.35;;
49946;SDS011;35839;48.662;13.300;2023-05-10T09:07:55;10.35;;;9.23;;
49946;SDS011;35839;48.662;13.300;2023-05-10T09:10:20;9.88;;;8.82;;
49946;SDS011;35839;48.662;13.300;2023-05-10T09:12:46;11.00;;;8.13;;
49946;SDS011;35839;48.662;13.300;2023-05-10T09:15:14;8.52;;;7.60;;
49946;SDS011;35839;48.662;13.300;2023-05-10T09:17:40;9.73;;;8.73;;
49946;SDS011;35839;48.662;13.300;2023-05-10T09:20:08;8.32;;;7.53;;
49946;SDS011;35839;48.662;13.300;2023-05-10T09:22:34;9.10;;;8.20;;
49946;SDS011;35839;48.662;13.300;2023-05-10T09:25:03;9.18;;;8.27;;
49946;SDS011;35839;48.662;13.300;2023-05-10T09:27:33;11.18;;;10.07;;
49946;SDS011;35839;48.662;13.300;2023-05-10T09:29:58;12.07;;;10.75;;
49946;SDS011;35839;48.662;13.300;2023-05-10T09:32:36;12.48;;;11.27;;
49946;SDS011;35839;48.662;13.300;2023-05-10T09:37:36;11.88;;;10.40;;
49946;SDS011;35839;48.662;13.300;2023-05-10T09:40:06;12.02;;;10.73;;
49946;SDS011;35839;48.662;13.300;2023-05-10T09:42:33;11.57;;;10.50;;
49946;SDS011;35839;48.662;13.300;2023-05-10T09:45:06;13.00;;;9.90;;
49946;SDS011;35839;48.662;13.300;2023-05-10T09:47:34;10.68;;;9.57;;
49946;SDS011;35839;48.662;13.300;2023-05-10T09:50:00;10.55;;;9.55;;
49946;SDS011;35839;48.662;13.300;2023-05-10T09:55:19;10.45;;;9.35;;
49946;SDS011;35839;48.662;13.300;2023-05-10T09:57:46;10.43;;;8.75;;
49946;SDS011;35839;48.662;13.300;2023-05-10T10:00:17;12.35;;;8.43;;
49946;SDS011;35839;48.662;13.300;2023-05-10T10:02:44;9.10;;;8.18;;
49946;SDS011;35839;48.662;13.300;2023-05-10T10:05:11;9.63;;;7.75;;
49946;SDS011;35839;48.662;13.300;2023-05-10T10:07:36;8.70;;;7.80;;
49946;SDS011;35839;48.662;13.300;2023-05-10T10:10:02;8.68;;;7.63;;
49946;SDS011;35839;48.662;13.300;2023-05-10T10:12:29;9.93;;;7.70;;
49946;SDS011;35839;48.662;13.300;2023-05-10T10:14:55;9.48;;;8.25;;
49946;SDS011;35839;48.662;13.300;2023-05-10T10:17:21;9.43;;;8.43;;
49946;SDS011;35839;48.662;13.300;2023-05-10T10:19:46;9.70;;;8.70;;
49946;SDS011;35839;48.662;13.300;2023-05-10T10:22:13;9.38;;;8.45;;
49946;SDS011;35839;48.662;13.300;2023-05-10T10:24:38;9.52;;;8.52;;
49946;SDS011;35839;48.662;13.300;2023-05-10T10:29:47;8.18;;;7.38;;
49946;SDS011;35839;48.662;13.300;2023-05-10T10:34:58;8.10;;;7.30;;
49946;SDS011;35839;48.662;13.300;2023-05-10T10:37:24;7.75;;;6.65;;
49946;SDS011;35839;48.662;13.300;2023-05-10T10:42:49;7.78;;;6.97;;
49946;SDS011;35839;48.662;13.300;2023-05-10T10:45:15;8.68;;;7.35;;
49946;SDS011;35839;48.662;13.300;2023-05-10T10:47:40;8.68;;;7.53;;
49946;SDS011;35839;48.662;13.300;2023-05-10T10:50:08;8.48;;;7.53;;
49946;SDS011;35839;48.662;13.300;2023-05-10T10:52:34;10.23;;;8.50;;
49946;SDS011;35839;48.662;13.300;2023-05-10T10:55:08;8.70;;;7.80;;
49946;SDS011;35839;48.662;13.300;2023-05-10T11:02:44;9.68;;;8.20;;
49946;SDS011;35839;48.662;13.300;2023-05-10T11:07:58;8.48;;;7.18;;
49946;SDS011;35839;48.662;13.300;2023-05-10T11:10:25;10.38;;;7.50;;
49946;SDS011;35839;48.662;13.300;2023-05-10T11:15:31;8.38;;;7.18;;
49946;SDS011;35839;48.662;13.300;2023-05-10T11:17:57;8.02;;;6.82;;
49946;SDS011;35839;48.662;13.300;2023-05-10T11:20:22;8.88;;;7.93;;
49946;SDS011;35839;48.662;13.300;2023-05-10T11:22:50;8.07;;;7.28;;
49946;SDS011;35839;48.662;13.300;2023-05-10T11:25:16;9.25;;;8.35;;
49946;SDS011;35839;48.662;13.300;2023-05-10T11:27:42;7.35;;;6.65;;
49946;SDS011;35839;48.662;13.300;2023-05-10T11:30:09;7.95;;;7.15;;
49946;SDS011;35839;48.662;13.300;2023-05-10T11:32:36;9.88;;;8.32;;
49946;SDS011;35839;48.662;13.300;2023-05-10T11:35:08;10.98;;;9.77;;
49946;SDS011;35839;48.662;13.300;2023-05-10T11:37:35;12.70;;;10.90;;
49946;SDS011;35839;48.662;13.300;2023-05-10T11:40:01;10.13;;;8.65;;
49946;SDS011;35839;48.662;13.300;2023-05-10T11:42:27;10.40;;;8.90;;
49946;SDS011;35839;48.662;13.300;2023-05-10T11:44:53;11.52;;;8.25;;
49946;SDS011;35839;48.662;13.300;2023-05-10T11:47:19;8.98;;;7.22;;
49946;SDS011;35839;48.662;13.300;2023-05-10T11:49:45;8.43;;;7.63;;
49946;SDS011;35839;48.662;13.300;2023-05-10T11:52:11;11.43;;;7.88;;
49946;SDS011;35839;48.662;13.300;2023-05-10T11:54:36;8.30;;;7.50;;
49946;SDS011;35839;48.662;13.300;2023-05-10T11:57:02;7.88;;;6.60;;
49946;SDS011;35839;48.662;13.300;2023-05-10T11:59:27;8.20;;;7.40;;
49946;SDS011;35839;48.662;13.300;2023-05-10T12:01:53;8.35;;;6.57;;
49946;SDS011;35839;48.662;13.300;2023-05-10T12:04:18;7.88;;;7.07;;
49946;SDS011;35839;48.662;13.300;2023-05-10T12:06:44;7.82;;;6.68;;
49946;SDS011;35839;48.662;13.300;2023-05-10T12:09:11;7.80;;;7.00;;
49946;SDS011;35839;48.662;13.300;2023-05-10T12:11:37;9.63;;;7.70;;
49946;SDS011;35839;48.662;13.300;2023-05-10T12:14:05;7.70;;;7.00;;
49946;SDS011;35839;48.662;13.300;2023-05-10T12:16:30;7.38;;;6.25;;
49946;SDS011;35839;48.662;13.300;2023-05-10T12:18:57;6.65;;;6.03;;
49946;SDS011;35839;48.662;13.300;2023-05-10T12:21:24;7.13;;;6.43;;
49946;SDS011;35839;48.662;13.300;2023-05-10T12:23:50;8.10;;;7.25;;
49946;SDS011;35839;48.662;13.300;2023-05-10T12:26:17;8.05;;;7.25;;
49946;SDS011;35839;48.662;13.300;2023-05-10T12:28:43;8.00;;;6.38;;
49946;SDS011;35839;48.662;13.300;2023-05-10T12:31:09;8.77;;;7.88;;
49946;SDS011;35839;48.662;13.300;2023-05-10T12:33:38;8.70;;;7.85;;
49946;SDS011;35839;48.662;13.300;2023-05-10T12:36:08;8.30;;;7.15;;
49946;SDS011;35839;48.662;13.300;2023-05-10T12:38:41;7.25;;;6.43;;
49946;SDS011;35839;48.662;13.300;2023-05-10T12:41:12;7.18;;;5.65;;
49946;SDS011;35839;48.662;13.300;2023-05-10T12:43:39;7.15;;;5.85;;
49946;SDS011;35839;48.662;13.300;2023-05-10T12:46:11;6.13;;;5.47;;
49946;SDS011;35839;48.662;13.300;2023-05-10T12:48:39;6.90;;;6.20;;
49946;SDS011;35839;48.662;13.300;2023-05-10T12:51:06;6.15;;;5.55;;
49946;SDS011;35839;48.662;13.300;2023-05-10T12:53:34;6.00;;;5.43;;
49946;SDS011;35839;48.662;13.300;2023-05-10T12:56:00;6.60;;;5.60;;
49946;SDS011;35839;48.662;13.300;2023-05-10T12:58:25;5.20;;;4.70;;
49946;SDS011;35839;48.662;13.300;2023-05-10T13:00:50;5.72;;;5.20;;
49946;SDS011;35839;48.662;13.300;2023-05-10T13:03:16;5.25;;;4.75;;
49946;SDS011;35839;48.662;13.300;2023-05-10T13:05:42;5.75;;;5.22;;
49946;SDS011;35839;48.662;13.300;2023-05-10T13:08:07;7.10;;;5.10;;
49946;SDS011;35839;48.662;13.300;2023-05-10T13:10:32;7.32;;;5.50;;
49946;SDS011;35839;48.662;13.300;2023-05-10T13:12:58;5.55;;;4.53;;
49946;SDS011;35839;48.662;13.300;2023-05-10T13:15:24;8.10;;;4.63;;
49946;SDS011;35839;48.662;13.300;2023-05-10T13:17:50;5.88;;;4.00;;
49946;SDS011;35839;48.662;13.300;2023-05-10T13:20:15;4.65;;;4.07;;
49946;SDS011;35839;48.662;13.300;2023-05-10T13:22:42;5.07;;;3.65;;
49946;SDS011;35839;48.662;13.300;2023-05-10T13:25:08;3.78;;;3.45;;
49946;SDS011;35839;48.662;13.300;2023-05-10T13:27:34;4.47;;;3.83;;
49946;SDS011;35839;48.662;13.300;2023-05-10T13:29:59;4.75;;;3.95;;
49946;SDS011;35839;48.662;13.300;2023-05-10T13:32:25;5.00;;;4.50;;
49946;SDS011;35839;48.662;13.300;2023-05-10T13:34:51;5.18;;;4.68;;
49946;SDS011;35839;48.662;13.300;2023-05-10T13:37:16;4.72;;;4.07;;
49946;SDS011;35839;48.662;13.300;2023-05-10T13:39:41;3.85;;;3.50;;
49946;SDS011;35839;48.662;13.300;2023-05-10T13:42:07;3.95;;;3.45;;
49946;SDS011;35839;48.662;13.300;2023-05-10T13:44:32;4.15;;;3.75;;
49946;SDS011;35839;48.662;13.300;2023-05-10T13:46:58;4.40;;;4.00;;
49946;SDS011;35839;48.662;13.300;2023-05-10T13:49:24;4.47;;;4.03;;
49946;SDS011;35839;48.662;13.300;2023-05-10T13:51:49;4.68;;;4.03;;
49946;SDS011;35839;48.662;13.300;2023-05-10T13:54:15;5.30;;;4.18;;
49946;SDS011;35839;48.662;13.300;2023-05-10T13:56:44;4.68;;;3.95;;
49946;SDS011;35839;48.662;13.300;2023-05-10T13:59:09;4.97;;;3.33;;
49946;SDS011;35839;48.662;13.300;2023-05-10T14:01:35;4.57;;;3.47;;
49946;SDS011;35839;48.662;13.300;2023-05-10T14:04:01;4.35;;;3.95;;
49946;SDS011;35839;48.662;13.300;2023-05-10T14:06:26;4.60;;;4.13;;
49946;SDS011;35839;48.662;13.300;2023-05-10T14:08:52;4.75;;;3.95;;
49946;SDS011;35839;48.662;13.300;2023-05-10T14:11:17;4.25;;;3.60;;
49946;SDS011;35839;48.662;13.300;2023-05-10T14:13:42;5.38;;;3.85;;
49946;SDS011;35839;48.662;13.300;2023-05-10T14:16:08;5.88;;;4.10;;
49946;SDS011;35839;48.662;13.300;2023-05-10T14:18:33;4.50;;;3.72;;
49946;SDS011;35839;48.662;13.300;2023-05-10T14:20:59;5.43;;;4.10;;
49946;SDS011;35839;48.662;13.300;2023-05-10T14:23:24;4.22;;;3.80;;
49946;SDS011;35839;48.662;13.300;2023-05-10T14:25:50;3.80;;;3.40;;
49946;SDS011;35839;48.662;13.300;2023-05-10T14:28:16;3.78;;;3.28;;
49946;SDS011;35839;48.662;13.300;2023-05-10T14:30:43;4.15;;;3.42;;
49946;SDS011;35839;48.662;13.300;2023-05-10T14:33:08;5.13;;;4.53;;
49946;SDS011;35839;48.662;13.300;2023-05-10T14:35:35;4.28;;;3.88;;
49946;SDS011;35839;48.662;13.300;2023-05-10T14:38:01;6.03;;;4.10;;
49946;SDS011;35839;48.662;13.300;2023-05-10T14:40:28;3.97;;;3.30;;
49946;SDS011;35839;48.662;13.300;2023-05-10T14:42:53;4.68;;;4.20;;
49946;SDS011;35839;48.662;13.300;2023-05-10T14:45:19;5.10;;;3.55;;
49946;SDS011;35839;48.662;13.300;2023-05-10T14:47:45;3.53;;;3.22;;
49946;SDS011;35839;48.662;13.300;2023-05-10T14:50:11;3.90;;;3.50;;
49946;SDS011;35839;48.662;13.300;2023-05-10T14:52:36;6.45;;;5.07;;
49946;SDS011;35839;48.662;13.300;2023-05-10T14:55:01;4.03;;;3.63;;
49946;SDS011;35839;48.662;13.300;2023-05-10T14:57:27;4.63;;;4.13;;
49946;SDS011;35839;48.662;13.300;2023-05-10T14:59:54;5.72;;;4.05;;
49946;SDS011;35839;48.662;13.300;2023-05-10T15:02:20;4.55;;;3.67;;
49946;SDS011;35839;48.662;13.300;2023-05-10T15:04:45;7.93;;;6.97;;
49946;SDS011;35839;48.662;13.300;2023-05-10T15:07:10;8.98;;;6.90;;
49946;SDS011;35839;48.662;13.300;2023-05-10T15:09:39;6.13;;;5.10;;
49946;SDS011;35839;48.662;13.300;2023-05-10T15:12:04;4.88;;;4.38;;
49946;SDS011;35839;48.662;13.300;2023-05-10T15:14:29;5.43;;;4.45;;
49946;SDS011;35839;48.662;13.300;2023-05-10T15:16:55;5.03;;;4.53;;
49946;SDS011;35839;48.662;13.300;2023-05-10T15:19:20;4.78;;;4.30;;
49946;SDS011;35839;48.662;13.300;2023-05-10T15:21:46;5.00;;;3.67;;
49946;SDS011;35839;48.662;13.300;2023-05-10T15:24:12;5.18;;;3.80;;
49946;SDS011;35839;48.662;13.300;2023-05-10T15:26:37;11.50;;;4.18;;
49946;SDS011;35839;48.662;13.300;2023-05-10T15:29:02;4.78;;;4.03;;
49946;SDS011;35839;48.662;13.300;2023-05-10T15:31:28;5.47;;;4.45;;
49946;SDS011;35839;48.662;13.300;2023-05-10T15:33:56;5.40;;;4.28;;
49946;SDS011;35839;48.662;13.300;2023-05-10T15:36:23;6.43;;;4.03;;
49946;SDS011;35839;48.662;13.300;2023-05-10T15:38:49;3.90;;;3.50;;
49946;SDS011;35839;48.662;13.300;2023-05-10T15:41:14;5.97;;;4.45;;
49946;SDS011;35839;48.662;13.300;2023-05-10T15:43:39;5.00;;;4.50;;
49946;SDS011;35839;48.662;13.300;2023-05-10T15:46:05;4.10;;;3.70;;
49946;SDS011;35839;48.662;13.300;2023-05-10T15:48:30;5.25;;;4.20;;
49946;SDS011;35839;48.662;13.300;2023-05-10T15:50:56;6.65;;;3.85;;
49946;SDS011;35839;48.662;13.300;2023-05-10T15:53:21;3.55;;;3.22;;
49946;SDS011;35839;48.662;13.300;2023-05-10T15:55:47;4.32;;;3.58;;
49946;SDS011;35839;48.662;13.300;2023-05-10T15:58:12;3.90;;;3.28;;
49946;SDS011;35839;48.662;13.300;2023-05-10T16:00:37;4.43;;;3.80;;
49946;SDS011;35839;48.662;13.300;2023-05-10T16:03:03;3.78;;;3.45;;
49946;SDS011;35839;48.662;13.300;2023-05-10T16:05:28;5.40;;;3.40;;
49946;SDS011;35839;48.662;13.300;2023-05-10T16:07:56;3.58;;;3.20;;
49946;SDS011;35839;48.662;13.300;2023-05-10T16:10:21;3.28;;;2.97;;
49946;SDS011;35839;48.662;13.300;2023-05-10T16:12:47;3.67;;;3.38;;
49946;SDS011;35839;48.662;13.300;2023-05-10T16:15:12;6.55;;;3.55;;
49946;SDS011;35839;48.662;13.300;2023-05-10T16:17:37;3.20;;;2.90;;
49946;SDS011;35839;48.662;13.300;2023-05-10T16:20:03;4.38;;;3.65;;
49946;SDS011;35839;48.662;13.300;2023-05-10T16:22:29;3.42;;;3.13;;
49946;SDS011;35839;48.662;13.300;2023-05-10T16:24:58;6.60;;;3.00;;
49946;SDS011;35839;48.662;13.300;2023-05-10T16:27:23;4.18;;;3.78;;
49946;SDS011;35839;48.662;13.300;2023-05-10T16:29:49;6.47;;;3.45;;
49946;SDS011;35839;48.662;13.300;2023-05-10T16:32:14;4.35;;;3.78;;
49946;SDS011;35839;48.662;13.300;2023-05-10T16:34:39;5.22;;;3.38;;
49946;SDS011;35839;48.662;13.300;2023-05-10T16:37:05;3.75;;;3.42;;
49946;SDS011;35839;48.662;13.300;2023-05-10T16:39:30;4.57;;;4.03;;
49946;SDS011;35839;48.662;13.300;2023-05-10T16:41:56;5.57;;;4.90;;
49946;SDS011;35839;48.662;13.300;2023-05-10T16:44:21;5.68;;;5.05;;
49946;SDS011;35839;48.662;13.300;2023-05-10T16:46:46;5.20;;;4.50;;
49946;SDS011;35839;48.662;13.300;2023-05-10T16:49:12;6.28;;;5.05;;
49946;SDS011;35839;48.662;13.300;2023-05-10T16:51:38;5.32;;;4.78;;
49946;SDS011;35839;48.662;13.300;2023-05-10T16:54:03;5.25;;;4.75;;
49946;SDS011;35839;48.662;13.300;2023-05-10T16:56:29;4.80;;;4.40;;
49946;SDS011;35839;48.662;13.300;2023-05-10T16:58:54;4.18;;;3.78;;
49946;SDS011;35839;48.662;13.300;2023-05-10T17:01:19;5.75;;;4.38;;
49946;SDS011;35839;48.662;13.300;2023-05-10T17:03:45;4.07;;;3.67;;
49946;SDS011;35839;48.662;13.300;2023-05-10T17:06:10;5.82;;;4.35;;
49946;SDS011;35839;48.662;13.300;2023-05-10T17:08:36;5.03;;;4.32;;
49946;SDS011;35839;48.662;13.300;2023-05-10T17:11:02;5.10;;;4.07;;
49946;SDS011;35839;48.662;13.300;2023-05-10T17:13:27;4.55;;;3.45;;
49946;SDS011;35839;48.662;13.300;2023-05-10T17:15:53;5.20;;;3.85;;
49946;SDS011;35839;48.662;13.300;2023-05-10T17:18:18;4.93;;;4.05;;
49946;SDS011;35839;48.662;13.300;2023-05-10T17:20:44;5.90;;;3.65;;
49946;SDS011;35839;48.662;13.300;2023-05-10T17:23:09;4.78;;;4.13;;
49946;SDS011;35839;48.662;13.300;2023-05-10T17:25:35;3.80;;;3.50;;
49946;SDS011;35839;48.662;13.300;2023-05-10T17:28:00;4.00;;;3.60;;
49946;SDS011;35839;48.662;13.300;2023-05-10T17:30:26;5.07;;;3.50;;
49946;SDS011;35839;48.662;13.300;2023-05-10T17:32:52;5.30;;;3.60;;
49946;SDS011;35839;48.662;13.300;2023-05-10T17:35:18;4.38;;;3.78;;
49946;SDS011;35839;48.662;13.300;2023-05-10T17:37:44;2.30;;;2.10;;
49946;SDS011;35839;48.662;13.300;2023-05-10T17:40:10;3.58;;;2.10;;
49946;SDS011;35839;48.662;13.300;2023-05-10T17:42:36;3.05;;;1.92;;
49946;SDS011;35839;48.662;13.300;2023-05-10T17:45:03;2.33;;;1.70;;
49946;SDS011;35839;48.662;13.300;2023-05-10T17:47:29;3.05;;;1.38;;
49946;SDS011;35839;48.662;13.300;2023-05-10T17:49:54;5.63;;;2.03;;
49946;SDS011;35839;48.662;13.300;2023-05-10T17:52:20;1.67;;;1.58;;
49946;SDS011;35839;48.662;13.300;2023-05-10T17:54:45;2.92;;;1.63;;
49946;SDS011;35839;48.662;13.300;2023-05-10T17:57:11;2.55;;;1.80;;
49946;SDS011;35839;48.662;13.300;2023-05-10T17:59:36;3.40;;;2.10;;
49946;SDS011;35839;48.662;13.300;2023-05-10T18:02:01;3.25;;;1.83;;
49946;SDS011;35839;48.662;13.300;2023-05-10T18:04:26;4.65;;;2.22;;
49946;SDS011;35839;48.662;13.300;2023-05-10T18:06:52;4.05;;;2.05;;
49946;SDS011;35839;48.662;13.300;2023-05-10T18:09:24;2.35;;;2.15;;
49946;SDS011;35839;48.662;13.300;2023-05-10T18:11:50;2.25;;;1.98;;
49946;SDS011;35839;48.662;13.300;2023-05-10T18:14:15;2.80;;;2.50;;
49946;SDS011;35839;48.662;13.300;2023-05-10T18:16:40;3.25;;;2.00;;
49946;SDS011;35839;48.662;13.300;2023-05-10T18:19:07;3.08;;;1.27;;
49946;SDS011;35839;48.662;13.300;2023-05-10T18:21:32;3.53;;;1.73;;
49946;SDS011;35839;48.662;13.300;2023-05-10T18:23:58;3.13;;;1.80;;
49946;SDS011;35839;48.662;13.300;2023-05-10T18:26:23;2.55;;;1.83;;
49946;SDS011;35839;48.662;13.300;2023-05-10T18:28:48;2.72;;;1.95;;
49946;SDS011;35839;48.662;13.300;2023-05-10T18:31:14;5.55;;;1.90;;
49946;SDS011;35839;48.662;13.300;2023-05-10T18:33:40;3.78;;;1.90;;
49946;SDS011;35839;48.662;13.300;2023-05-10T18:36:05;2.60;;;2.00;;
49946;SDS011;35839;48.662;13.300;2023-05-10T18:38:31;3.03;;;1.85;;
49946;SDS011;35839;48.662;13.300;2023-05-10T18:40:56;2.30;;;1.80;;
49946;SDS011;35839;48.662;13.300;2023-05-10T18:43:22;2.83;;;2.08;;
49946;SDS011;35839;48.662;13.300;2023-05-10T18:45:47;4.03;;;1.75;;
49946;SDS011;35839;48.662;13.300;2023-05-10T18:48:14;7.28;;;2.40;;
49946;SDS011;35839;48.662;13.300;2023-05-10T18:50:40;3.53;;;2.45;;
49946;SDS011;35839;48.662;13.300;2023-05-10T18:53:05;5.93;;;2.20;;
49946;SDS011;35839;48.662;13.300;2023-05-10T18:55:30;2.80;;;2.10;;
49946;SDS011;35839;48.662;13.300;2023-05-10T18:57:56;23.67;;;5.63;;
49946;SDS011;35839;48.662;13.300;2023-05-10T19:00:21;11.65;;;3.08;;
49946;SDS011;35839;48.662;13.300;2023-05-10T19:02:46;6.47;;;3.10;;
49946;SDS011;35839;48.662;13.300;2023-05-10T19:05:12;3.55;;;2.53;;
49946;SDS011;35839;48.662;13.300;2023-05-10T19:07:38;4.60;;;2.45;;
49946;SDS011;35839;48.662;13.300;2023-05-10T19:10:07;4.30;;;2.30;;
49946;SDS011;35839;48.662;13.300;2023-05-10T19:12:33;7.32;;;2.83;;
49946;SDS011;35839;48.662;13.300;2023-05-10T19:14:58;7.75;;;2.88;;
49946;SDS011;35839;48.662;13.300;2023-05-10T19:17:24;6.25;;;2.63;;
49946;SDS011;35839;48.662;13.300;2023-05-10T19:19:50;4.40;;;2.97;;
49946;SDS011;35839;48.662;13.300;2023-05-10T19:22:15;6.05;;;3.13;;
49946;SDS011;35839;48.662;13.300;2023-05-10T19:24:40;3.95;;;2.53;;
49946;SDS011;35839;48.662;13.300;2023-05-10T19:27:06;2.83;;;2.53;;
49946;SDS011;35839;48.662;13.300;2023-05-10T19:29:31;5.03;;;3.03;;
49946;SDS011;35839;48.662;13.300;2023-05-10T19:31:56;4.93;;;2.90;;
49946;SDS011;35839;48.662;13.300;2023-05-10T19:34:21;4.30;;;3.22;;
49946;SDS011;35839;48.662;13.300;2023-05-10T19:36:47;3.10;;;2.80;;
49946;SDS011;35839;48.662;13.300;2023-05-10T19:39:12;6.95;;;2.80;;
49946;SDS011;35839;48.662;13.300;2023-05-10T19:41:37;4.90;;;2.97;;
49946;SDS011;35839;48.662;13.300;2023-05-10T19:44:03;2.95;;;2.60;;
49946;SDS011;35839;48.662;13.300;2023-05-10T19:46:28;4.40;;;3.40;;
49946;SDS011;35839;48.662;13.300;2023-05-10T19:48:54;4.05;;;2.88;;
49946;SDS011;35839;48.662;13.300;2023-05-10T19:51:20;3.42;;;3.13;;
49946;SDS011;35839;48.662;13.300;2023-05-10T19:53:45;3.78;;;3.38;;
49946;SDS011;35839;48.662;13.300;2023-05-10T19:56:11;3.45;;;3.03;;
49946;SDS011;35839;48.662;13.300;2023-05-10T19:58:37;4.07;;;3.00;;